Time,TemperatureF,DewpointF,PressureIn,WindDirection,WindDirectionDegrees,WindSpeedMPH,WindSpeedGustMPH,Humidity,HourlyPrecipIn,Conditions,Clouds,dailyrainin,SoftwareType,DateUTC
2013-02-09 00:02:00,31.0,13.0,-100.00,ESE,105,6.0,10.0,46,0.00,,,-99.99,,2013-02-09 05:02:00,
2013-02-09 00:12:00,31.0,13.0,-100.00,East,90,6.0,10.0,46,0.00,,,-99.99,,2013-02-09 05:12:00,
2013-02-09 00:22:00,31.0,13.0,-100.00,SE,125,2.0,6.0,46,0.00,,,-99.99,,2013-02-09 05:22:00,
2013-02-09 00:32:00,29.0,12.0,-100.00,ENE,75,4.0,7.0,48,0.00,,,-99.99,,2013-02-09 05:32:00,
2013-02-09 00:41:00,31.0,15.0,-100.00,South,180,9.0,16.0,51,0.01,,,-99.99,,2013-02-09 05:41:00,
2013-02-09 00:52:00,29.0,20.0,-100.00,SW,230,7.0,14.0,69,0.00,,,-99.99,,2013-02-09 05:52:00,
2013-02-09 01:01:00,29.0,23.0,-100.00,SW,225,4.0,9.0,78,0.01,,,-99.99,,2013-02-09 06:01:00,
2013-02-09 01:11:00,28.0,24.0,-100.00,South,190,4.0,7.0,82,0.03,,,-99.99,,2013-02-09 06:11:00,
2013-02-09 01:21:00,27.0,25.0,-100.00,NW,305,4.0,6.0,88,0.00,,,-99.99,,2013-02-09 06:21:00,
2013-02-09 01:31:00,28.0,25.0,-100.00,WNW,285,2.0,5.0,89,0.00,,,-99.99,,2013-02-09 06:31:00,
2013-02-09 01:41:00,28.0,25.0,-100.00,NW,325,0.0,2.0,90,0.00,,,-99.99,,2013-02-09 06:41:00,
2013-02-09 01:51:00,28.0,26.0,-100.00,SW,225,6.0,7.0,91,0.00,,,-99.99,,2013-02-09 06:51:00,
2013-02-09 02:01:00,28.0,26.0,-100.00,West,275,4.0,9.0,90,0.00,,,-99.99,,2013-02-09 07:01:00,
2013-02-09 02:11:00,28.0,26.0,-100.00,WNW,295,3.0,6.0,90,0.00,,,-99.99,,2013-02-09 07:11:00,
2013-02-09 02:21:00,28.0,26.0,-100.00,WNW,290,6.0,6.0,91,0.00,,,-99.99,,2013-02-09 07:21:00,
2013-02-09 02:31:00,28.0,26.0,-100.00,WNW,295,6.0,7.0,91,0.01,,,-99.99,,2013-02-09 07:31:00,
2013-02-09 02:42:00,29.0,27.0,-100.00,West,260,6.0,7.0,92,0.01,,,-99.99,,2013-02-09 07:42:00,
2013-02-09 02:51:00,28.0,26.0,-100.00,East,90,3.0,6.0,93,0.00,,,-99.99,,2013-02-09 07:51:00,
2013-02-09 03:01:00,28.0,27.0,-100.00,SE,140,4.0,12.0,93,0.00,,,-99.99,,2013-02-09 08:01:00,
2013-02-09 03:11:00,28.0,26.0,-100.00,SSE,150,4.0,9.0,93,0.00,,,-99.99,,2013-02-09 08:11:00,
2013-02-09 03:21:00,27.0,25.0,-100.00,East,80,7.0,10.0,94,0.00,,,-99.99,,2013-02-09 08:21:00,
2013-02-09 03:31:00,26.0,25.0,-100.00,East,95,7.0,9.0,94,0.00,,,-99.99,,2013-02-09 08:31:00,
2013-02-09 03:42:00,25.0,24.0,-100.00,East,95,7.0,11.0,94,0.00,,,-99.99,,2013-02-09 08:42:00,
2013-02-09 03:52:00,25.0,24.0,-100.00,East,95,6.0,12.0,96,0.00,,,-99.99,,2013-02-09 08:52:00,
2013-02-09 04:03:00,25.0,24.0,-100.00,NE,55,6.0,9.0,97,0.00,,,-99.99,,2013-02-09 09:03:00,
2013-02-09 04:11:00,24.0,24.0,-100.00,NNE,30,4.0,9.0,98,0.00,,,-99.99,,2013-02-09 09:11:00,
2013-02-09 04:21:00,24.0,24.0,-100.00,NE,50,4.0,7.0,99,0.00,,,-99.99,,2013-02-09 09:21:00,
2013-02-09 04:31:00,24.0,24.0,-100.00,ENE,65,1.0,5.0,99,0.00,,,-99.99,,2013-02-09 09:31:00,
2013-02-09 04:41:00,23.0,23.0,-100.00,SSE,150,0.0,3.0,99,0.00,,,-99.99,,2013-02-09 09:41:00,
2013-02-09 04:51:00,23.0,23.0,-100.00,ENE,60,12.0,15.0,99,0.00,,,-99.99,,2013-02-09 09:51:00,
2013-02-09 05:01:00,23.0,22.0,-100.00,ENE,70,7.0,18.0,96,0.00,,,-99.99,,2013-02-09 10:01:00,
2013-02-09 05:11:00,22.0,21.0,-100.00,NE,50,12.0,16.0,95,0.00,,,-99.99,,2013-02-09 10:11:00,
2013-02-09 05:21:00,22.0,20.0,-100.00,NE,55,11.0,14.0,90,0.00,,,-99.99,,2013-02-09 10:21:00,
2013-02-09 05:31:00,22.0,19.0,-100.00,NE,55,9.0,12.0,89,0.00,,,-99.99,,2013-02-09 10:31:00,
2013-02-09 05:41:00,22.0,19.0,-100.00,NNE,30,5.0,9.0,89,0.00,,,-99.99,,2013-02-09 10:41:00,
2013-02-09 05:51:00,22.0,19.0,-100.00,ENE,65,7.0,9.0,87,0.00,,,-99.99,,2013-02-09 10:51:00,
2013-02-09 06:01:00,21.0,19.0,-100.00,NE,50,2.0,11.0,88,0.00,,,-99.99,,2013-02-09 11:01:00,
2013-02-09 06:11:00,21.0,19.0,-100.00,ENE,65,1.0,7.0,89,0.00,,,-99.99,,2013-02-09 11:11:00,
2013-02-09 06:21:00,22.0,18.0,-100.00,NE,45,6.0,6.0,87,0.00,,,-99.99,,2013-02-09 11:21:00,
2013-02-09 06:31:00,22.0,19.0,-100.00,NE,50,6.0,9.0,86,0.00,,,-99.99,,2013-02-09 11:31:00,
2013-02-09 06:41:00,22.0,18.0,-100.00,NNE,30,5.0,9.0,86,0.00,,,-99.99,,2013-02-09 11:41:00,
2013-02-09 06:52:00,22.0,18.0,-100.00,NNE,30,2.0,11.0,87,0.00,,,-99.99,,2013-02-09 11:52:00,
2013-02-09 07:02:00,21.0,18.0,-100.00,SSW,200,1.0,7.0,87,0.00,,,-99.99,,2013-02-09 12:02:00,
2013-02-09 07:11:00,21.0,18.0,-100.00,ESE,120,0.0,3.0,88,0.00,,,-99.99,,2013-02-09 12:11:00,
2013-02-09 07:21:00,21.0,18.0,-100.00,ENE,60,1.0,4.0,89,0.00,,,-99.99,,2013-02-09 12:21:00,
2013-02-09 07:32:00,21.0,18.0,-100.00,SE,125,1.0,3.0,90,0.00,,,-99.99,,2013-02-09 12:32:00,
2013-02-09 07:42:00,20.0,18.0,-100.00,ESE,115,0.0,2.0,90,0.00,,,-99.99,,2013-02-09 12:42:00,
2013-02-09 07:52:00,20.0,18.0,-100.00,East,100,1.0,5.0,90,0.00,,,-99.99,,2013-02-09 12:52:00,
2013-02-09 08:02:00,20.0,18.0,-100.00,East,95,1.0,3.0,91,0.00,,,-99.99,,2013-02-09 13:02:00,
2013-02-09 08:11:00,20.0,18.0,-100.00,ENE,70,0.0,3.0,91,0.00,,,-99.99,,2013-02-09 13:11:00,
2013-02-09 08:21:00,20.0,18.0,-100.00,WSW,240,1.0,2.0,91,0.00,,,-99.99,,2013-02-09 13:21:00,
2013-02-09 08:32:00,20.0,18.0,-100.00,WNW,290,0.0,1.0,91,0.00,,,-99.99,,2013-02-09 13:32:00,
2013-02-09 08:42:00,20.0,18.0,-100.00,NE,50,3.0,4.0,92,0.00,,,-99.99,,2013-02-09 13:42:00,
2013-02-09 08:51:00,21.0,19.0,-100.00,NE,40,3.0,4.0,92,0.00,,,-99.99,,2013-02-09 13:51:00,
2013-02-09 09:01:00,20.0,19.0,-100.00,ENE,60,1.0,3.0,92,0.00,,,-99.99,,2013-02-09 14:01:00,
2013-02-09 09:11:00,20.0,18.0,-100.00,NE,40,5.0,6.0,92,0.03,,,-99.99,,2013-02-09 14:11:00,
2013-02-09 09:21:00,20.0,18.0,-100.00,NE,45,3.0,6.0,93,0.06,,,-99.99,,2013-02-09 14:21:00,
2013-02-09 09:31:00,20.0,18.0,-100.00,ENE,60,4.0,5.0,94,0.03,,,-99.99,,2013-02-09 14:31:00,
2013-02-09 09:41:00,19.0,18.0,-100.00,NE,55,2.0,5.0,96,0.03,,,-99.99,,2013-02-09 14:41:00,
2013-02-09 09:52:00,19.0,18.0,-100.00,ENE,70,2.0,3.0,96,0.01,,,-99.99,,2013-02-09 14:52:00,
2013-02-09 10:02:00,19.0,19.0,-100.00,ENE,65,2.0,3.0,97,0.01,,,-99.99,,2013-02-09 15:02:00,
2013-02-09 10:11:00,19.0,19.0,-100.00,ENE,60,1.0,3.0,96,0.03,,,-99.99,,2013-02-09 15:11:00,
2013-02-09 10:21:00,20.0,19.0,-100.00,ENE,70,4.0,6.0,97,0.07,,,-99.99,,2013-02-09 15:21:00,
2013-02-09 10:32:00,20.0,19.0,-100.00,ENE,70,7.0,8.0,98,0.07,,,-99.99,,2013-02-09 15:32:00,
2013-02-09 10:42:00,20.0,19.0,-100.00,ENE,70,6.0,9.0,98,0.01,,,-99.99,,2013-02-09 15:42:00,
2013-02-09 10:51:00,20.0,19.0,-100.00,ENE,75,5.0,7.0,98,0.01,,,-99.99,,2013-02-09 15:51:00,
2013-02-09 11:01:00,20.0,19.0,-100.00,East,90,7.0,10.0,99,0.01,,,-99.99,,2013-02-09 16:01:00,
2013-02-09 11:11:00,20.0,19.0,-100.00,East,90,7.0,10.0,99,0.06,,,-99.99,,2013-02-09 16:11:00,
2013-02-09 11:22:00,19.0,19.0,-100.00,East,90,8.0,11.0,99,0.01,,,-99.99,,2013-02-09 16:22:00,
2013-02-09 11:31:00,19.0,19.0,-100.00,ENE,75,7.0,9.0,99,0.03,,,-99.99,,2013-02-09 16:31:00,
2013-02-09 11:41:00,19.0,19.0,-100.00,ENE,75,6.0,10.0,99,0.01,,,-99.99,,2013-02-09 16:41:00,
2013-02-09 11:51:00,19.0,19.0,-100.00,East,90,8.0,10.0,99,0.03,,,-99.99,,2013-02-09 16:51:00,
2013-02-09 12:01:00,19.0,19.0,-100.00,East,85,9.0,9.0,99,0.03,,,-99.99,,2013-02-09 17:01:00,
2013-02-09 12:11:00,19.0,19.0,-100.00,East,85,9.0,11.0,99,0.01,,,-99.99,,2013-02-09 17:11:00,
2013-02-09 12:21:00,19.0,19.0,-100.00,ENE,75,7.0,10.0,99,0.04,,,-99.99,,2013-02-09 17:21:00,
2013-02-09 12:32:00,20.0,20.0,-100.00,East,95,7.0,9.0,99,0.06,,,-99.99,,2013-02-09 17:32:00,
2013-02-09 12:41:00,20.0,20.0,-100.00,East,90,7.0,9.0,99,0.03,,,-99.99,,2013-02-09 17:41:00,
2013-02-09 12:52:00,20.0,20.0,-100.00,East,90,7.0,9.0,99,0.03,,,-99.99,,2013-02-09 17:52:00,
2013-02-09 13:02:00,20.0,20.0,-100.00,East,80,9.0,12.0,99,0.01,,,-99.99,,2013-02-09 18:02:00,
2013-02-09 13:12:00,19.0,19.0,-100.00,East,85,9.0,12.0,99,0.01,,,-99.99,,2013-02-09 18:12:00,
2013-02-09 13:23:00,20.0,20.0,-100.00,East,100,6.0,10.0,99,0.07,,,-99.99,,2013-02-09 18:23:00,
2013-02-09 13:32:00,20.0,20.0,-100.00,East,95,6.0,7.0,99,0.10,,,-99.99,,2013-02-09 18:32:00,
2013-02-09 13:42:00,20.0,20.0,-100.00,East,100,4.0,7.0,99,0.10,,,-99.99,,2013-02-09 18:42:00,
2013-02-09 13:51:00,20.0,20.0,-100.00,East,95,3.0,5.0,99,0.07,,,-99.99,,2013-02-09 18:51:00,
2013-02-09 14:01:00,20.0,20.0,-100.00,East,85,3.0,4.0,99,0.07,,,-99.99,,2013-02-09 19:01:00,
2013-02-09 14:11:00,20.0,20.0,-100.00,ENE,70,2.0,4.0,99,0.06,,,-99.99,,2013-02-09 19:11:00,
2013-02-09 14:22:00,20.0,20.0,-100.00,ENE,70,2.0,4.0,99,0.08,,,-99.99,,2013-02-09 19:22:00,
2013-02-09 14:32:00,21.0,21.0,-100.00,ENE,65,1.0,2.0,99,0.07,,,-99.99,,2013-02-09 19:32:00,
2013-02-09 14:42:00,21.0,21.0,-100.00,ENE,60,0.0,1.0,99,0.04,,,-99.99,,2013-02-09 19:42:00,
2013-02-09 14:52:00,21.0,21.0,-100.00,NE,55,2.0,2.0,99,0.07,,,-99.99,,2013-02-09 19:52:00,
2013-02-09 15:01:00,22.0,22.0,-100.00,NE,55,2.0,3.0,99,0.06,,,-99.99,,2013-02-09 20:01:00,
2013-02-09 15:11:00,22.0,22.0,-100.00,NE,55,1.0,3.0,99,0.07,,,-99.99,,2013-02-09 20:11:00,
2013-02-09 15:21:00,26.0,26.0,-100.00,NE,50,0.0,2.0,99,0.07,,,-99.99,,2013-02-09 20:21:00,
2013-02-09 15:31:00,27.0,27.0,-100.00,NE,50,0.0,0.0,99,0.06,,,-99.99,,2013-02-09 20:31:00,
2013-02-09 15:42:00,28.0,28.0,-100.00,NE,50,0.0,0.0,99,0.03,,,-99.99,,2013-02-09 20:42:00,
2013-02-09 15:52:00,29.0,29.0,-100.00,NW,305,1.0,2.0,99,0.04,,,-99.99,,2013-02-09 20:52:00,
2013-02-09 16:02:00,23.0,23.0,-100.00,North,0,7.0,9.0,99,0.01,,,-99.99,,2013-02-09 21:02:00,
2013-02-09 16:11:00,22.0,22.0,-100.00,NNW,345,7.0,9.0,99,0.00,,,-99.99,,2013-02-09 21:11:00,
2013-02-09 16:21:00,21.0,21.0,-100.00,NNW,335,8.0,10.0,99,0.00,,,-99.99,,2013-02-09 21:21:00,
2013-02-09 16:31:00,21.0,21.0,-100.00,NNW,330,7.0,9.0,99,0.00,,,-99.99,,2013-02-09 21:31:00,
2013-02-09 16:41:00,21.0,21.0,-100.00,NW,320,7.0,9.0,99,0.01,,,-99.99,,2013-02-09 21:41:00,
2013-02-09 16:52:00,22.0,22.0,-100.00,NW,310,7.0,10.0,99,0.01,,,-99.99,,2013-02-09 21:52:00,
2013-02-09 17:01:00,22.0,22.0,-100.00,NW,320,7.0,9.0,99,0.01,,,-99.99,,2013-02-09 22:01:00,
2013-02-09 17:11:00,22.0,22.0,-100.00,NW,320,6.0,9.0,99,0.00,,,-99.99,,2013-02-09 22:11:00,
2013-02-09 17:21:00,20.0,20.0,-100.00,NW,325,9.0,12.0,99,0.00,,,-99.99,,2013-02-09 22:21:00,
2013-02-09 17:32:00,20.0,20.0,-100.00,NW,315,11.0,13.0,99,0.00,,,-99.99,,2013-02-09 22:32:00,
2013-02-09 17:42:00,20.0,20.0,-100.00,NW,315,8.0,12.0,99,0.01,,,-99.99,,2013-02-09 22:42:00,
2013-02-09 17:51:00,20.0,20.0,-100.00,NW,310,7.0,11.0,99,0.01,,,-99.99,,2013-02-09 22:51:00,
2013-02-09 18:01:00,19.0,19.0,-100.00,NW,320,7.0,10.0,99,0.00,,,-99.99,,2013-02-09 23:01:00,
2013-02-09 18:11:00,19.0,19.0,-100.00,NW,310,5.0,9.0,99,0.00,,,-99.99,,2013-02-09 23:11:00,
2013-02-09 18:21:00,19.0,19.0,-100.00,NW,320,6.0,7.0,99,0.00,,,-99.99,,2013-02-09 23:21:00,
2013-02-09 18:32:00,19.0,19.0,-100.00,NW,305,7.0,9.0,99,0.01,,,-99.99,,2013-02-09 23:32:00,
2013-02-09 18:42:00,19.0,19.0,-100.00,NW,310,9.0,10.0,99,0.06,,,-99.99,,2013-02-09 23:42:00,
2013-02-09 18:52:00,18.0,18.0,-100.00,NW,315,7.0,10.0,99,0.04,,,-99.99,,2013-02-09 23:52:00,
2013-02-09 19:02:00,18.0,18.0,-100.00,NW,305,6.0,10.0,99,0.03,,,-99.99,,2013-02-10 00:02:00,
2013-02-09 19:11:00,18.0,18.0,-100.00,NW,305,7.0,9.0,99,0.01,,,-99.99,,2013-02-10 00:11:00,
2013-02-09 19:21:00,18.0,18.0,-100.00,WNW,295,6.0,9.0,99,0.03,,,-99.99,,2013-02-10 00:21:00,
2013-02-09 19:32:00,18.0,18.0,-100.00,WNW,295,5.0,11.0,99,0.04,,,-99.99,,2013-02-10 00:32:00,
2013-02-09 19:41:00,18.0,18.0,-100.00,WNW,295,7.0,11.0,99,0.06,,,-99.99,,2013-02-10 00:41:00,
2013-02-09 19:51:00,18.0,18.0,-100.00,WNW,285,6.0,9.0,99,0.04,,,-99.99,,2013-02-10 00:51:00,
2013-02-09 20:01:00,18.0,17.0,-100.00,WNW,295,7.0,9.0,99,0.04,,,-99.99,,2013-02-10 01:01:00,
2013-02-09 20:12:00,18.0,17.0,-100.00,WNW,290,7.0,9.0,99,0.03,,,-99.99,,2013-02-10 01:12:00,
2013-02-09 20:21:00,17.0,17.0,-100.00,WNW,290,8.0,10.0,99,0.03,,,-99.99,,2013-02-10 01:21:00,
2013-02-09 20:32:00,17.0,17.0,-100.00,WNW,285,7.0,9.0,99,0.04,,,-99.99,,2013-02-10 01:32:00,
2013-02-09 20:42:00,17.0,17.0,-100.00,WNW,285,7.0,9.0,99,0.04,,,-99.99,,2013-02-10 01:42:00,
2013-02-09 20:51:00,17.0,17.0,-100.00,WNW,295,6.0,9.0,99,0.04,,,-99.99,,2013-02-10 01:51:00,
2013-02-09 21:01:00,17.0,17.0,-100.00,WNW,290,7.0,10.0,99,0.03,,,-99.99,,2013-02-10 02:01:00,
2013-02-09 21:11:00,17.0,17.0,-100.00,WNW,285,7.0,10.0,99,0.04,,,-99.99,,2013-02-10 02:11:00,
2013-02-09 21:22:00,17.0,17.0,-100.00,WNW,285,8.0,11.0,99,0.03,,,-99.99,,2013-02-10 02:22:00,
2013-02-09 21:32:00,17.0,17.0,-100.00,WNW,285,7.0,11.0,99,0.03,,,-99.99,,2013-02-10 02:32:00,
2013-02-09 21:41:00,17.0,17.0,-100.00,West,265,8.0,11.0,99,0.04,,,-99.99,,2013-02-10 02:41:00,
2013-02-09 21:52:00,17.0,17.0,-100.00,West,270,9.0,11.0,99,0.06,,,-99.99,,2013-02-10 02:52:00,
2013-02-09 22:01:00,17.0,17.0,-100.00,West,280,9.0,12.0,99,0.04,,,-99.99,,2013-02-10 03:01:00,
2013-02-09 22:11:00,17.0,17.0,-100.00,West,270,9.0,12.0,99,0.03,,,-99.99,,2013-02-10 03:11:00,
2013-02-09 22:21:00,17.0,17.0,-100.00,West,275,9.0,13.0,99,0.03,,,-99.99,,2013-02-10 03:21:00,
2013-02-09 22:32:00,17.0,17.0,-100.00,West,270,9.0,12.0,99,0.04,,,-99.99,,2013-02-10 03:32:00,
2013-02-09 22:41:00,17.0,17.0,-100.00,West,275,11.0,14.0,99,0.01,,,-99.99,,2013-02-10 03:41:00,
2013-02-09 22:51:00,17.0,17.0,-100.00,West,270,10.0,13.0,99,0.01,,,-99.99,,2013-02-10 03:51:00,
2013-02-09 23:01:00,17.0,17.0,-100.00,West,270,11.0,14.0,99,0.01,,,-99.99,,2013-02-10 04:01:00,
2013-02-09 23:11:00,17.0,17.0,-100.00,West,275,12.0,14.0,99,0.03,,,-99.99,,2013-02-10 04:11:00,
2013-02-09 23:21:00,17.0,17.0,-100.00,WSW,250,10.0,15.0,99,0.01,,,-99.99,,2013-02-10 04:21:00,
2013-02-09 23:32:00,17.0,17.0,-100.00,West,275,11.0,14.0,99,0.00,,,-99.99,,2013-02-10 04:32:00,
2013-02-09 23:41:00,17.0,17.0,-100.00,West,265,9.0,13.0,99,0.01,,,-99.99,,2013-02-10 04:41:00,
2013-02-09 23:51:00,17.0,17.0,-100.00,West,270,9.0,12.0,99,0.04,,,-99.99,,2013-02-10 04:51:00,